sensor_id;sensor_type;location;lat;lon;timestamp;pressure;altitude;pressure_sealevel;temperature;humidity
27984;BME280;15317;50.360;8.726;2023-07-29T00:01:10;99015.72;;;18.04;100.00
27984;BME280;15317;50.360;8.726;2023-07-29T00:06:14;99012.56;;;18.07;100.00
27984;BME280;15317;50.360;8.726;2023-07-29T00:11:17;99009.22;;;17.99;100.00
27984;BME280;15317;50.360;8.726;2023-07-29T00:16:21;98995.69;;;17.97;100.00
27984;BME280;15317;50.360;8.726;2023-07-29T00:21:24;98999.91;;;18.00;100.00
27984;BME280;15317;50.360;8.726;2023-07-29T00:26:28;98991.03;;;17.98;100.00
27984;BME280;15317;50.360;8.726;2023-07-29T00:31:33;98992.09;;;17.97;100.00
27984;BME280;15317;50.360;8.726;2023-07-29T00:36:36;98977.13;;;17.93;100.00
27984;BME280;15317;50.360;8.726;2023-07-29T00:41:39;98976.50;;;17.91;100.00
27984;BME280;15317;50.360;8.726;2023-07-29T00:46:45;98974.38;;;17.93;100.00
27984;BME280;15317;50.360;8.726;2023-07-29T00:51:49;98974.56;;;17.98;100.00
27984;BME280;15317;50.360;8.726;2023-07-29T00:56:52;98970.28;;;18.02;100.00
27984;BME280;15317;50.360;8.726;2023-07-29T01:01:57;98971.56;;;18.06;100.00
27984;BME280;15317;50.360;8.726;2023-07-29T01:13:08;98957.59;;;18.07;100.00
27984;BME280;15317;50.360;8.726;2023-07-29T01:18:22;98957.34;;;18.09;100.00
27984;BME280;15317;50.360;8.726;2023-07-29T01:23:30;98947.22;;;18.09;100.00
27984;BME280;15317;50.360;8.726;2023-07-29T01:28:34;98948.25;;;18.08;100.00
27984;BME280;15317;50.360;8.726;2023-07-29T01:33:58;98950.41;;;18.06;100.00
27984;BME280;15317;50.360;8.726;2023-07-29T01:39:04;98930.13;;;18.07;100.00
27984;BME280;15317;50.360;8.726;2023-07-29T01:44:10;98929.88;;;18.09;100.00
27984;BME280;15317;50.360;8.726;2023-07-29T01:49:17;98931.81;;;18.02;100.00
27984;BME280;15317;50.360;8.726;2023-07-29T01:54:22;98929.69;;;18.04;100.00
27984;BME280;15317;50.360;8.726;2023-07-29T01:59:26;98920.81;;;18.02;100.00
27984;BME280;15317;50.360;8.726;2023-07-29T02:04:30;98914.28;;;18.03;100.00
27984;BME280;15317;50.360;8.726;2023-07-29T02:09:36;98911.34;;;17.98;100.00
27984;BME280;15317;50.360;8.726;2023-07-29T02:14:41;98915.16;;;17.97;100.00
27984;BME280;15317;50.360;8.726;2023-07-29T02:19:44;98918.53;;;17.99;100.00
27984;BME280;15317;50.360;8.726;2023-07-29T02:24:50;98923.56;;;18.02;100.00
27984;BME280;15317;50.360;8.726;2023-07-29T02:29:53;98916.41;;;18.01;100.00
27984;BME280;15317;50.360;8.726;2023-07-29T02:34:57;98904.34;;;18.02;100.00
27984;BME280;15317;50.360;8.726;2023-07-29T02:40:04;98906.44;;;18.06;100.00
27984;BME280;15317;50.360;8.726;2023-07-29T02:45:08;98898.41;;;18.05;100.00
27984;BME280;15317;50.360;8.726;2023-07-29T02:50:14;98898.78;;;18.08;100.00
27984;BME280;15317;50.360;8.726;2023-07-29T02:55:19;98900.09;;;18.06;100.00
27984;BME280;15317;50.360;8.726;2023-07-29T03:00:23;98905.59;;;18.06;100.00
27984;BME280;15317;50.360;8.726;2023-07-29T03:05:27;98896.72;;;18.04;100.00
27984;BME280;15317;50.360;8.726;2023-07-29T03:10:34;98897.56;;;18.04;100.00
27984;BME280;15317;50.360;8.726;2023-07-29T03:15:38;98873.31;;;18.01;100.00
27984;BME280;15317;50.360;8.726;2023-07-29T03:20:42;98880.91;;;17.99;100.00
27984;BME280;15317;50.360;8.726;2023-07-29T03:25:49;98870.13;;;17.98;100.00
27984;BME280;15317;50.360;8.726;2023-07-29T03:30:58;98875.00;;;17.96;100.00
27984;BME280;15317;50.360;8.726;2023-07-29T03:36:03;98857.69;;;17.95;100.00
27984;BME280;15317;50.360;8.726;2023-07-29T03:41:09;98864.00;;;17.96;100.00
27984;BME280;15317;50.360;8.726;2023-07-29T03:46:12;98870.56;;;17.95;100.00
27984;BME280;15317;50.360;8.726;2023-07-29T03:51:20;98868.25;;;17.98;100.00
27984;BME280;15317;50.360;8.726;2023-07-29T03:56:25;98869.50;;;17.96;100.00
27984;BME280;15317;50.360;8.726;2023-07-29T04:01:29;98858.09;;;17.99;100.00
27984;BME280;15317;50.360;8.726;2023-07-29T04:06:33;98856.03;;;17.94;100.00
27984;BME280;15317;50.360;8.726;2023-07-29T04:11:39;98852.88;;;17.91;100.00
27984;BME280;15317;50.360;8.726;2023-07-29T04:16:44;98861.28;;;17.96;100.00
27984;BME280;15317;50.360;8.726;2023-07-29T04:21:51;98868.03;;;18.00;100.00
27984;BME280;15317;50.360;8.726;2023-07-29T04:26:57;98869.72;;;18.01;100.00
27984;BME280;15317;50.360;8.726;2023-07-29T04:32:02;98883.63;;;18.06;100.00
27984;BME280;15317;50.360;8.726;2023-07-29T04:37:07;98876.38;;;18.11;100.00
27984;BME280;15317;50.360;8.726;2023-07-29T04:42:12;98861.13;;;18.15;100.00
27984;BME280;15317;50.360;8.726;2023-07-29T04:47:16;98860.25;;;18.22;100.00
27984;BME280;15317;50.360;8.726;2023-07-29T04:52:22;98857.66;;;18.27;100.00
27984;BME280;15317;50.360;8.726;2023-07-29T04:57:28;98845.81;;;18.26;100.00
27984;BME280;15317;50.360;8.726;2023-07-29T05:02:32;98841.09;;;18.33;100.00
27984;BME280;15317;50.360;8.726;2023-07-29T05:07:36;98842.94;;;18.39;100.00
27984;BME280;15317;50.360;8.726;2023-07-29T05:12:42;98811.78;;;18.45;100.00
27984;BME280;15317;50.360;8.726;2023-07-29T05:17:46;98828.91;;;18.47;100.00
27984;BME280;15317;50.360;8.726;2023-07-29T05:22:51;98818.50;;;18.49;100.00
27984;BME280;15317;50.360;8.726;2023-07-29T05:27:59;98839.66;;;18.56;100.00
27984;BME280;15317;50.360;8.726;2023-07-29T05:33:04;98844.63;;;18.65;100.00
27984;BME280;15317;50.360;8.726;2023-07-29T05:38:10;98846.94;;;18.68;100.00
27984;BME280;15317;50.360;8.726;2023-07-29T05:43:19;98841.19;;;18.70;100.00
27984;BME280;15317;50.360;8.726;2023-07-29T05:53:34;98854.78;;;18.65;100.00
27984;BME280;15317;50.360;8.726;2023-07-29T05:58:38;98859.00;;;18.67;100.00
27984;BME280;15317;50.360;8.726;2023-07-29T06:03:42;98863.44;;;18.68;100.00
27984;BME280;15317;50.360;8.726;2023-07-29T06:08:45;98877.19;;;18.68;100.00
27984;BME280;15317;50.360;8.726;2023-07-29T06:13:50;98882.69;;;18.68;100.00
27984;BME280;15317;50.360;8.726;2023-07-29T06:18:53;98887.34;;;18.68;100.00
27984;BME280;15317;50.360;8.726;2023-07-29T06:23:56;98883.53;;;18.69;100.00
27984;BME280;15317;50.360;8.726;2023-07-29T06:29:01;98897.88;;;18.71;100.00
27984;BME280;15317;50.360;8.726;2023-07-29T06:34:04;98907.97;;;18.77;100.00
27984;BME280;15317;50.360;8.726;2023-07-29T06:39:07;98892.78;;;18.74;100.00
27984;BME280;15317;50.360;8.726;2023-07-29T06:44:11;98879.88;;;18.75;100.00
27984;BME280;15317;50.360;8.726;2023-07-29T06:49:15;98874.19;;;18.70;100.00
27984;BME280;15317;50.360;8.726;2023-07-29T06:54:18;98867.47;;;18.66;100.00
27984;BME280;15317;50.360;8.726;2023-07-29T06:59:22;98866.19;;;18.68;100.00
27984;BME280;15317;50.360;8.726;2023-07-29T07:04:26;98889.09;;;18.62;100.00
27984;BME280;15317;50.360;8.726;2023-07-29T07:09:29;98903.31;;;18.52;100.00
27984;BME280;15317;50.360;8.726;2023-07-29T07:14:34;98912.06;;;18.43;100.00
27984;BME280;15317;50.360;8.726;2023-07-29T07:19:37;98911.69;;;18.39;100.00
27984;BME280;15317;50.360;8.726;2023-07-29T07:24:40;98916.63;;;18.31;100.00
27984;BME280;15317;50.360;8.726;2023-07-29T07:29:44;98909.22;;;18.31;100.00
27984;BME280;15317;50.360;8.726;2023-07-29T07:34:48;98889.06;;;18.37;100.00
27984;BME280;15317;50.360;8.726;2023-07-29T07:39:51;98918.03;;;18.40;100.00
27984;BME280;15317;50.360;8.726;2023-07-29T07:44:55;98939.97;;;18.46;100.00
27984;BME280;15317;50.360;8.726;2023-07-29T07:49:59;98936.28;;;18.59;100.00
27984;BME280;15317;50.360;8.726;2023-07-29T07:55:02;98928.47;;;18.81;100.00
27984;BME280;15317;50.360;8.726;2023-07-29T08:00:08;98935.56;;;19.13;100.00
27984;BME280;15317;50.360;8.726;2023-07-29T08:05:12;98934.19;;;19.22;100.00
27984;BME280;15317;50.360;8.726;2023-07-29T08:10:15;98910.53;;;19.33;100.00
27984;BME280;15317;50.360;8.726;2023-07-29T08:15:20;98907.78;;;19.69;100.00
27984;BME280;15317;50.360;8.726;2023-07-29T08:20:23;98895.34;;;20.50;100.00
27984;BME280;15317;50.360;8.726;2023-07-29T08:25:28;98869.88;;;21.29;100.00
27984;BME280;15317;50.360;8.726;2023-07-29T08:30:33;98836.78;;;22.53;100.00
27984;BME280;15317;50.360;8.726;2023-07-29T08:35:36;98825.69;;;22.87;100.00
27984;BME280;15317;50.360;8.726;2023-07-29T08:40:45;98836.50;;;23.27;100.00
27984;BME280;15317;50.360;8.726;2023-07-29T08:45:50;98820.16;;;24.00;100.00
27984;BME280;15317;50.360;8.726;2023-07-29T08:50:54;98824.06;;;24.68;100.00
27984;BME280;15317;50.360;8.726;2023-07-29T08:55:58;98809.56;;;24.98;100.00
27984;BME280;15317;50.360;8.726;2023-07-29T09:01:03;98816.84;;;25.77;98.84
27984;BME280;15317;50.360;8.726;2023-07-29T09:06:07;98811.03;;;25.93;94.95
27984;BME280;15317;50.360;8.726;2023-07-29T09:11:13;98823.34;;;26.33;88.72
27984;BME280;15317;50.360;8.726;2023-07-29T09:16:19;98810.22;;;25.93;100.00
27984;BME280;15317;50.360;8.726;2023-07-29T09:21:24;98806.91;;;26.37;86.66
27984;BME280;15317;50.360;8.726;2023-07-29T09:26:28;98797.91;;;25.74;92.29
27984;BME280;15317;50.360;8.726;2023-07-29T09:31:35;98797.75;;;26.26;85.14
27984;BME280;15317;50.360;8.726;2023-07-29T09:36:40;98808.81;;;26.01;91.05
27984;BME280;15317;50.360;8.726;2023-07-29T09:41:47;98802.38;;;25.75;97.17
27984;BME280;15317;50.360;8.726;2023-07-29T09:46:53;98805.50;;;25.16;92.08
27984;BME280;15317;50.360;8.726;2023-07-29T09:51:56;98793.66;;;24.89;98.93
27984;BME280;15317;50.360;8.726;2023-07-29T09:57:00;98798.19;;;25.05;98.49
27984;BME280;15317;50.360;8.726;2023-07-29T10:02:09;98801.63;;;26.25;91.72
27984;BME280;15317;50.360;8.726;2023-07-29T10:07:16;98810.16;;;27.04;81.43
27984;BME280;15317;50.360;8.726;2023-07-29T10:12:20;98806.84;;;26.87;83.72
27984;BME280;15317;50.360;8.726;2023-07-29T10:17:26;98794.09;;;26.61;77.72
27984;BME280;15317;50.360;8.726;2023-07-29T10:22:34;98779.88;;;26.22;82.90
27984;BME280;15317;50.360;8.726;2023-07-29T10:27:42;98773.47;;;26.21;80.27
27984;BME280;15317;50.360;8.726;2023-07-29T10:32:48;98766.63;;;27.19;71.57
27984;BME280;15317;50.360;8.726;2023-07-29T10:37:53;98776.81;;;27.92;77.64
27984;BME280;15317;50.360;8.726;2023-07-29T10:43:02;98780.75;;;28.31;67.35
27984;BME280;15317;50.360;8.726;2023-07-29T10:48:10;98771.81;;;27.95;64.54
27984;BME280;15317;50.360;8.726;2023-07-29T10:53:16;98762.56;;;27.50;67.65
27984;BME280;15317;50.360;8.726;2023-07-29T10:58:19;98772.91;;;26.60;70.80
27984;BME280;15317;50.360;8.726;2023-07-29T11:03:23;98769.44;;;25.41;81.00
27984;BME280;15317;50.360;8.726;2023-07-29T11:08:31;98787.38;;;24.61;84.01
27984;BME280;15317;50.360;8.726;2023-07-29T11:13:36;98784.38;;;23.72;92.21
27984;BME280;15317;50.360;8.726;2023-07-29T11:18:42;98795.84;;;22.72;100.00
27984;BME280;15317;50.360;8.726;2023-07-29T11:23:46;98794.53;;;22.58;100.00
27984;BME280;15317;50.360;8.726;2023-07-29T11:28:50;98796.03;;;23.26;100.00
27984;BME280;15317;50.360;8.726;2023-07-29T11:33:54;98771.63;;;24.77;100.00
27984;BME280;15317;50.360;8.726;2023-07-29T11:38:57;98774.03;;;26.08;88.49
27984;BME280;15317;50.360;8.726;2023-07-29T11:44:00;98785.88;;;27.10;82.59
27984;BME280;15317;50.360;8.726;2023-07-29T11:49:05;98778.81;;;27.87;71.62
27984;BME280;15317;50.360;8.726;2023-07-29T11:54:08;98791.28;;;27.61;68.95
27984;BME280;15317;50.360;8.726;2023-07-29T11:59:11;98766.75;;;26.73;80.71
27984;BME280;15317;50.360;8.726;2023-07-29T12:04:16;98767.38;;;26.19;74.95
27984;BME280;15317;50.360;8.726;2023-07-29T12:09:19;98774.34;;;25.09;79.81
27984;BME280;15317;50.360;8.726;2023-07-29T12:14:25;98784.94;;;24.33;90.48
27984;BME280;15317;50.360;8.726;2023-07-29T12:19:34;98777.47;;;23.75;98.17
27984;BME280;15317;50.360;8.726;2023-07-29T12:24:38;98780.22;;;23.48;100.00
27984;BME280;15317;50.360;8.726;2023-07-29T12:29:43;98782.00;;;24.18;100.00
27984;BME280;15317;50.360;8.726;2023-07-29T12:34:49;98777.56;;;24.49;93.94
27984;BME280;15317;50.360;8.726;2023-07-29T12:39:52;98764.41;;;24.02;99.26
27984;BME280;15317;50.360;8.726;2023-07-29T12:44:55;98765.56;;;23.74;99.46
27984;BME280;15317;50.360;8.726;2023-07-29T12:50:00;98759.53;;;23.55;100.00
27984;BME280;15317;50.360;8.726;2023-07-29T12:55:04;98754.81;;;24.15;100.00
27984;BME280;15317;50.360;8.726;2023-07-29T13:00:09;98753.84;;;25.35;90.25
27984;BME280;15317;50.360;8.726;2023-07-29T13:05:13;98769.56;;;26.02;67.28
27984;BME280;15317;50.360;8.726;2023-07-29T13:10:16;98754.81;;;25.96;75.74
27984;BME280;15317;50.360;8.726;2023-07-29T13:15:20;98758.13;;;25.68;67.48
27984;BME280;15317;50.360;8.726;2023-07-29T13:20:24;98756.91;;;25.34;74.63
27984;BME280;15317;50.360;8.726;2023-07-29T13:25:28;98759.34;;;25.20;78.09
27984;BME280;15317;50.360;8.726;2023-07-29T13:30:31;98743.84;;;25.29;75.58
27984;BME280;15317;50.360;8.726;2023-07-29T13:35:35;98753.34;;;25.48;76.49
27984;BME280;15317;50.360;8.726;2023-07-29T13:40:39;98755.34;;;25.58;67.38
27984;BME280;15317;50.360;8.726;2023-07-29T13:45:42;98761.22;;;26.07;75.35
27984;BME280;15317;50.360;8.726;2023-07-29T13:50:46;98752.31;;;26.15;71.14
27984;BME280;15317;50.360;8.726;2023-07-29T13:55:49;98750.72;;;27.29;63.67
27984;BME280;15317;50.360;8.726;2023-07-29T14:00:52;98759.47;;;28.01;56.43
27984;BME280;15317;50.360;8.726;2023-07-29T14:05:58;98767.59;;;27.97;53.70
27984;BME280;15317;50.360;8.726;2023-07-29T14:11:02;98758.59;;;27.66;58.61
27984;BME280;15317;50.360;8.726;2023-07-29T14:16:05;98765.88;;;27.62;58.06
27984;BME280;15317;50.360;8.726;2023-07-29T14:21:10;98752.13;;;27.17;57.50
27984;BME280;15317;50.360;8.726;2023-07-29T14:26:13;98739.44;;;26.80;59.99
27984;BME280;15317;50.360;8.726;2023-07-29T14:31:16;98749.97;;;27.03;57.45
27984;BME280;15317;50.360;8.726;2023-07-29T14:36:20;98758.59;;;27.07;63.51
27984;BME280;15317;50.360;8.726;2023-07-29T14:41:24;98752.56;;;27.44;55.49
27984;BME280;15317;50.360;8.726;2023-07-29T14:46:27;98754.41;;;27.69;50.95
27984;BME280;15317;50.360;8.726;2023-07-29T14:51:31;98763.81;;;27.78;50.90
27984;BME280;15317;50.360;8.726;2023-07-29T14:56:34;98770.63;;;26.97;58.75
27984;BME280;15317;50.360;8.726;2023-07-29T15:01:38;98764.59;;;25.99;70.08
27984;BME280;15317;50.360;8.726;2023-07-29T15:06:43;98766.47;;;25.63;72.78
27984;BME280;15317;50.360;8.726;2023-07-29T15:11:46;98758.88;;;25.38;75.34
27984;BME280;15317;50.360;8.726;2023-07-29T15:16:49;98745.78;;;25.39;76.10
27984;BME280;15317;50.360;8.726;2023-07-29T15:21:54;98751.13;;;25.50;75.95
27984;BME280;15317;50.360;8.726;2023-07-29T15:26:57;98749.16;;;25.46;81.65
27984;BME280;15317;50.360;8.726;2023-07-29T15:32:00;98750.50;;;25.23;79.53
27984;BME280;15317;50.360;8.726;2023-07-29T15:37:05;98755.66;;;25.82;68.30
27984;BME280;15317;50.360;8.726;2023-07-29T15:42:09;98751.47;;;25.94;71.65
27984;BME280;15317;50.360;8.726;2023-07-29T15:47:12;98743.69;;;25.76;66.51
27984;BME280;15317;50.360;8.726;2023-07-29T15:52:19;98752.28;;;25.80;59.06
27984;BME280;15317;50.360;8.726;2023-07-29T15:57:22;98754.00;;;25.96;63.76
27984;BME280;15317;50.360;8.726;2023-07-29T16:02:26;98747.59;;;26.06;59.31
27984;BME280;15317;50.360;8.726;2023-07-29T16:07:30;98756.22;;;26.14;63.01
27984;BME280;15317;50.360;8.726;2023-07-29T16:12:34;98756.25;;;26.24;63.05
27984;BME280;15317;50.360;8.726;2023-07-29T16:17:40;98754.03;;;26.31;66.43
27984;BME280;15317;50.360;8.726;2023-07-29T16:22:44;98759.28;;;26.08;59.36
27984;BME280;15317;50.360;8.726;2023-07-29T16:27:50;98755.66;;;25.82;61.32
27984;BME280;15317;50.360;8.726;2023-07-29T16:32:53;98756.75;;;26.01;62.57
27984;BME280;15317;50.360;8.726;2023-07-29T16:37:58;98754.81;;;25.96;58.26
27984;BME280;15317;50.360;8.726;2023-07-29T16:43:02;98755.59;;;25.56;57.27
27984;BME280;15317;50.360;8.726;2023-07-29T16:48:05;98760.00;;;25.42;57.09
27984;BME280;15317;50.360;8.726;2023-07-29T16:53:10;98761.03;;;25.16;62.04
27984;BME280;15317;50.360;8.726;2023-07-29T16:58:13;98760.53;;;25.34;65.78
27984;BME280;15317;50.360;8.726;2023-07-29T17:03:16;98768.84;;;24.77;73.15
27984;BME280;15317;50.360;8.726;2023-07-29T17:08:23;98758.56;;;23.98;81.48
27984;BME280;15317;50.360;8.726;2023-07-29T17:13:27;98758.63;;;23.50;85.38
27984;BME280;15317;50.360;8.726;2023-07-29T17:18:30;98755.81;;;23.23;89.27
27984;BME280;15317;50.360;8.726;2023-07-29T17:23:34;98757.13;;;22.94;93.89
27984;BME280;15317;50.360;8.726;2023-07-29T17:28:37;98755.91;;;22.84;95.51
27984;BME280;15317;50.360;8.726;2023-07-29T17:33:41;98765.06;;;22.68;97.23
27984;BME280;15317;50.360;8.726;2023-07-29T17:38:45;98762.47;;;22.62;100.00
27984;BME280;15317;50.360;8.726;2023-07-29T17:43:48;98764.66;;;22.76;100.00
27984;BME280;15317;50.360;8.726;2023-07-29T17:48:51;98755.06;;;22.84;97.33
27984;BME280;15317;50.360;8.726;2023-07-29T17:53:56;98759.28;;;22.70;100.00
27984;BME280;15317;50.360;8.726;2023-07-29T17:58:59;98760.25;;;22.42;100.00
27984;BME280;15317;50.360;8.726;2023-07-29T18:04:02;98771.84;;;22.22;100.00
27984;BME280;15317;50.360;8.726;2023-07-29T18:09:07;98771.09;;;22.10;100.00
27984;BME280;15317;50.360;8.726;2023-07-29T18:14:10;98775.31;;;21.84;100.00
27984;BME280;15317;50.360;8.726;2023-07-29T18:19:13;98795.13;;;21.64;100.00
27984;BME280;15317;50.360;8.726;2023-07-29T18:24:17;98792.13;;;21.49;100.00
27984;BME280;15317;50.360;8.726;2023-07-29T18:29:22;98790.75;;;21.23;100.00
27984;BME280;15317;50.360;8.726;2023-07-29T18:34:25;98796.56;;;20.99;100.00
27984;BME280;15317;50.360;8.726;2023-07-29T18:39:29;98793.84;;;20.75;100.00
27984;BME280;15317;50.360;8.726;2023-07-29T18:44:33;98812.56;;;20.50;100.00
27984;BME280;15317;50.360;8.726;2023-07-29T18:49:36;98817.34;;;20.31;100.00
27984;BME280;15317;50.360;8.726;2023-07-29T18:54:41;98821.03;;;20.13;100.00
27984;BME280;15317;50.360;8.726;2023-07-29T18:59:45;98838.72;;;19.94;100.00
27984;BME280;15317;50.360;8.726;2023-07-29T19:04:48;98835.72;;;19.84;100.00
27984;BME280;15317;50.360;8.726;2023-07-29T19:09:53;98846.66;;;19.61;100.00
27984;BME280;15317;50.360;8.726;2023-07-29T19:14:59;98845.00;;;19.42;100.00
27984;BME280;15317;50.360;8.726;2023-07-29T19:20:03;98855.69;;;19.31;100.00
27984;BME280;15317;50.360;8.726;2023-07-29T19:25:11;98860.16;;;19.14;100.00
27984;BME280;15317;50.360;8.726;2023-07-29T19:30:15;98861.09;;;19.08;100.00
27984;BME280;15317;50.360;8.726;2023-07-29T19:35:18;98875.47;;;19.10;100.00
27984;BME280;15317;50.360;8.726;2023-07-29T19:40:23;98883.56;;;19.05;100.00
27984;BME280;15317;50.360;8.726;2023-07-29T19:45:26;98879.44;;;18.96;100.00
27984;BME280;15317;50.360;8.726;2023-07-29T19:50:29;98879.25;;;18.91;100.00
27984;BME280;15317;50.360;8.726;2023-07-29T19:55:34;98866.34;;;18.91;100.00
27984;BME280;15317;50.360;8.726;2023-07-29T20:00:37;98870.41;;;18.89;100.00
27984;BME280;15317;50.360;8.726;2023-07-29T20:05:40;98863.06;;;18.83;100.00
27984;BME280;15317;50.360;8.726;2023-07-29T20:10:45;98878.94;;;18.63;100.00
27984;BME280;15317;50.360;8.726;2023-07-29T20:15:49;98876.25;;;18.49;100.00
27984;BME280;15317;50.360;8.726;2023-07-29T20:20:52;98893.22;;;18.46;100.00
27984;BME280;15317;50.360;8.726;2023-07-29T20:25:56;98887.44;;;18.54;100.00
27984;BME280;15317;50.360;8.726;2023-07-29T20:30:59;98892.50;;;18.58;100.00
27984;BME280;15317;50.360;8.726;2023-07-29T20:36:03;98892.06;;;18.61;100.00
27984;BME280;15317;50.360;8.726;2023-07-29T20:41:08;98898.78;;;18.65;100.00
27984;BME280;15317;50.360;8.726;2023-07-29T20:46:17;98886.88;;;18.71;100.00
27984;BME280;15317;50.360;8.726;2023-07-29T20:51:21;98899.56;;;18.72;100.00
27984;BME280;15317;50.360;8.726;2023-07-29T20:56:25;98898.66;;;18.78;100.00
27984;BME280;15317;50.360;8.726;2023-07-29T21:01:30;98892.72;;;18.81;100.00
27984;BME280;15317;50.360;8.726;2023-07-29T21:06:34;98893.94;;;18.85;100.00
27984;BME280;15317;50.360;8.726;2023-07-29T21:11:39;98899.84;;;18.88;100.00
27984;BME280;15317;50.360;8.726;2023-07-29T21:16:42;98911.22;;;18.92;100.00
27984;BME280;15317;50.360;8.726;2023-07-29T21:21:45;98909.31;;;18.92;100.00
27984;BME280;15317;50.360;8.726;2023-07-29T21:26:50;98912.06;;;18.92;100.00
27984;BME280;15317;50.360;8.726;2023-07-29T21:31:53;98921.31;;;18.98;100.00
27984;BME280;15317;50.360;8.726;2023-07-29T21:36:56;98913.69;;;19.00;100.00
27984;BME280;15317;50.360;8.726;2023-07-29T21:42:01;98893.34;;;19.01;100.00
27984;BME280;15317;50.360;8.726;2023-07-29T21:47:04;98902.81;;;19.05;100.00
27984;BME280;15317;50.360;8.726;2023-07-29T21:52:07;98910.00;;;19.06;100.00
27984;BME280;15317;50.360;8.726;2023-07-29T21:57:12;98918.25;;;19.06;100.00
27984;BME280;15317;50.360;8.726;2023-07-29T22:02:15;98926.38;;;19.01;100.00
27984;BME280;15317;50.360;8.726;2023-07-29T22:07:19;98917.72;;;18.98;100.00
27984;BME280;15317;50.360;8.726;2023-07-29T22:12:23;98918.56;;;18.98;100.00
27984;BME280;15317;50.360;8.726;2023-07-29T22:17:31;98933.22;;;18.92;100.00
27984;BME280;15317;50.360;8.726;2023-07-29T22:22:35;98948.31;;;18.89;100.00
27984;BME280;15317;50.360;8.726;2023-07-29T22:27:39;98926.28;;;18.89;100.00
27984;BME280;15317;50.360;8.726;2023-07-29T22:32:43;98929.88;;;18.90;100.00
27984;BME280;15317;50.360;8.726;2023-07-29T22:37:47;98925.25;;;18.84;100.00
27984;BME280;15317;50.360;8.726;2023-07-29T22:42:52;98920.06;;;18.76;100.00
27984;BME280;15317;50.360;8.726;2023-07-29T22:47:55;98922.47;;;18.66;100.00
27984;BME280;15317;50.360;8.726;2023-07-29T22:52:58;98920.94;;;18.70;100.00
27984;BME280;15317;50.360;8.726;2023-07-29T22:58:03;98924.16;;;18.67;100.00
27984;BME280;15317;50.360;8.726;2023-07-29T23:03:06;98921.25;;;18.62;100.00
27984;BME280;15317;50.360;8.726;2023-07-29T23:08:09;98914.50;;;18.58;100.00
27984;BME280;15317;50.360;8.726;2023-07-29T23:13:14;98892.50;;;18.58;100.00
27984;BME280;15317;50.360;8.726;2023-07-29T23:18:18;98900.03;;;18.69;100.00
27984;BME280;15317;50.360;8.726;2023-07-29T23:23:21;98901.38;;;18.60;100.00
27984;BME280;15317;50.360;8.726;2023-07-29T23:28:26;98896.41;;;18.43;100.00
27984;BME280;15317;50.360;8.726;2023-07-29T23:33:29;98898.09;;;18.44;100.00
27984;BME280;15317;50.360;8.726;2023-07-29T23:38:32;98891.69;;;18.50;100.00
27984;BME280;15317;50.360;8.726;2023-07-29T23:43:37;98887.00;;;18.58;100.00
27984;BME280;15317;50.360;8.726;2023-07-29T23:48:40;98880.53;;;18.70;100.00
27984;BME280;15317;50.360;8.726;2023-07-29T23:53:43;98891.72;;;18.75;100.00
27984;BME280;15317;50.360;8.726;2023-07-29T23:58:47;98889.81;;;18.76;100.00
